Time;durP1;ratioP1;P1;durP2;ratioP2;P2;SDS_P1;SDS_P2;PMS_P1;PMS_P2;Temp;Humidity;BMP_temperature;BMP_pressure;BME280_temperature;BME280_humidity;BME280_pressure;Samples;Min_cycle;Max_cycle;Signal;HPM_P1;HPM_P2
2023/08/04 00:01:24;;;;;;;;;;;;;;;21.36;85.28;94841.56;5114921;28;1017;-57
2023/08/04 00:03:50;;;;;;;;;;;;;;;21.54;84.36;94846.09;5115042;28;1905;-57
2023/08/04 00:06:16;;;;;;;;;;;;;;;21.73;83.32;94846.78;5114683;28;1028;-57
2023/08/04 00:08:42;;;;;;;;;;;;;;;21.81;83.00;94838.25;5115075;28;1060;-57
2023/08/04 00:11:08;;;;;;;;;;;;;;;21.67;83.49;94843.13;5114868;28;1021;-57
2023/08/04 00:13:33;;;;;;;;;;;;;;;21.53;83.73;94837.13;5114795;28;1242;-57
2023/08/04 00:16:06;;;;;;;;;;;;;;;21.31;84.50;94844.16;5114816;28;1092;-57
2023/08/04 00:18:32;;;;;;;;;;;;;;;21.50;84.16;94847.63;5096817;28;1013;-57
2023/08/04 00:20:58;;;;;;;;;;;;;;;21.59;83.49;94840.78;5114893;28;1056;-57
2023/08/04 00:23:24;;;;;;;;;;;;;;;21.61;83.23;94844.91;5114559;28;1905;-57
2023/08/04 00:25:50;;;;;;;;;;;;;;;21.41;84.54;94844.41;5114502;28;1534;-57
2023/08/04 00:28:16;;;;;;;;;;;;;;;21.51;84.04;94849.28;5112491;28;2827;-57
2023/08/04 00:30:42;;;;;;;;;;;;;;;21.59;83.31;94852.47;5111227;28;2553;-57
2023/08/04 00:33:09;;;;;;;;;;;;;;;21.49;83.82;94854.13;5093852;28;1043;-57
2023/08/04 00:35:35;;;;;;;;;;;;;;;21.25;85.07;94854.91;5106630;28;2874;-57
2023/08/04 00:38:01;;;;;;;;;;;;;;;21.09;86.00;94852.06;5114446;28;969;-57
2023/08/04 00:40:30;;;;;;;;;;;;;;;21.23;85.25;94857.03;5114184;28;1107;-57
2023/08/04 00:42:56;;;;;;;;;;;;;;;21.38;84.42;94850.28;5114414;28;1995;-57
2023/08/04 00:45:24;;;;;;;;;;;;;;;21.38;84.79;94845.72;5096252;28;1021;-57
2023/08/04 00:47:51;;;;;;;;;;;;;;;21.61;82.99;94842.19;5113962;28;3053;-57
2023/08/04 00:50:18;;;;;;;;;;;;;;;21.55;83.11;94845.84;5114229;28;979;-57
2023/08/04 00:52:44;;;;;;;;;;;;;;;21.50;83.26;94856.63;5114038;28;1083;-57
2023/08/04 00:55:12;;;;;;;;;;;;;;;21.31;84.48;94855.03;5113841;28;1135;-57
2023/08/04 00:57:39;;;;;;;;;;;;;;;21.24;85.30;94857.88;5114301;28;1049;-56
2023/08/04 01:00:06;;;;;;;;;;;;;;;21.02;85.71;94860.34;5113950;28;962;-56
2023/08/04 01:02:32;;;;;;;;;;;;;;;20.81;86.64;94857.09;5114102;28;1913;-56
2023/08/04 01:04:59;;;;;;;;;;;;;;;20.62;87.99;94853.59;5114169;28;1037;-57
2023/08/04 01:07:27;;;;;;;;;;;;;;;20.61;88.09;94845.69;5110359;28;2935;-56
2023/08/04 01:10:03;;;;;;;;;;;;;;;20.67;87.68;94850.19;5113793;28;966;-56
2023/08/04 01:12:31;;;;;;;;;;;;;;;20.77;87.21;94845.03;5114116;28;1044;-56
2023/08/04 01:14:59;;;;;;;;;;;;;;;21.10;85.47;94851.81;5113667;28;1088;-56
2023/08/04 01:17:26;;;;;;;;;;;;;;;21.34;83.67;94843.69;5113621;28;1025;-56
2023/08/04 01:19:52;;;;;;;;;;;;;;;21.12;84.67;94849.69;5113772;28;1157;-56
2023/08/04 01:22:18;;;;;;;;;;;;;;;20.70;87.01;94846.16;5113804;28;1071;-56
2023/08/04 01:24:44;;;;;;;;;;;;;;;20.61;87.19;94846.50;5113349;28;1981;-56
2023/08/04 01:27:12;;;;;;;;;;;;;;;20.71;87.04;94843.22;5113866;28;925;-56
2023/08/04 01:29:39;;;;;;;;;;;;;;;20.80;86.30;94841.84;5113426;28;1217;-56
2023/08/04 01:32:05;;;;;;;;;;;;;;;20.82;86.61;94842.44;5095830;28;2504;-57
2023/08/04 01:34:32;;;;;;;;;;;;;;;20.66;86.37;94849.34;5093180;28;1041;-56
2023/08/04 01:36:58;;;;;;;;;;;;;;;20.70;86.70;94847.00;5093264;28;1116;-56
2023/08/04 01:39:25;;;;;;;;;;;;;;;20.70;86.59;94844.28;5093026;28;1040;-56
2023/08/04 01:41:51;;;;;;;;;;;;;;;20.60;86.89;94855.72;5093086;28;1092;-57
2023/08/04 01:44:17;;;;;;;;;;;;;;;20.66;87.04;94851.25;5092986;28;1989;-57
2023/08/04 01:46:43;;;;;;;;;;;;;;;20.67;86.48;94848.28;5102150;28;3064;-57
2023/08/04 01:49:09;;;;;;;;;;;;;;;20.56;86.63;94853.66;5113623;28;974;-57
2023/08/04 01:51:36;;;;;;;;;;;;;;;20.49;87.21;94859.19;5113608;28;952;-57
2023/08/04 01:54:02;;;;;;;;;;;;;;;20.59;86.79;94856.75;5113617;28;974;-56
2023/08/04 01:56:28;;;;;;;;;;;;;;;20.55;86.62;94854.72;5113395;28;1040;-57
2023/08/04 01:58:54;;;;;;;;;;;;;;;20.57;86.40;94861.56;5113286;28;991;-56
2023/08/04 02:01:20;;;;;;;;;;;;;;;20.47;86.84;94862.13;5113092;28;1067;-57
2023/08/04 02:03:46;;;;;;;;;;;;;;;20.47;87.03;94867.56;5113246;28;1890;-57
2023/08/04 02:06:12;;;;;;;;;;;;;;;20.45;87.01;94871.53;5113337;28;977;-57
2023/08/04 02:08:37;;;;;;;;;;;;;;;20.30;87.55;94871.97;5113300;28;1090;-57
2023/08/04 02:11:03;;;;;;;;;;;;;;;20.37;87.70;94874.59;5102886;28;2476;-57
2023/08/04 02:13:29;;;;;;;;;;;;;;;20.36;87.21;94868.34;5092638;28;1100;-57
2023/08/04 02:15:55;;;;;;;;;;;;;;;20.44;86.30;94868.00;5092907;28;1099;-57
2023/08/04 02:18:21;;;;;;;;;;;;;;;20.38;86.65;94868.94;5092700;28;1067;-56
2023/08/04 02:20:47;;;;;;;;;;;;;;;20.39;86.40;94862.44;5094406;28;990;-57
2023/08/04 02:23:13;;;;;;;;;;;;;;;20.26;87.26;94873.47;5096560;28;1909;-57
2023/08/04 02:25:39;;;;;;;;;;;;;;;20.35;86.96;94880.25;5096502;28;1037;-57
2023/08/04 02:28:05;;;;;;;;;;;;;;;20.40;86.55;94874.97;5109463;28;1500;-57
2023/08/04 02:30:31;;;;;;;;;;;;;;;20.28;86.58;94874.09;5116940;28;1240;-57
2023/08/04 02:32:57;;;;;;;;;;;;;;;20.12;87.41;94880.94;5116986;28;960;-57
2023/08/04 02:35:23;;;;;;;;;;;;;;;19.98;88.11;94876.75;5116758;28;1066;-56
2023/08/04 02:37:49;;;;;;;;;;;;;;;20.05;87.64;94875.63;5116675;28;1067;-56
2023/08/04 02:40:15;;;;;;;;;;;;;;;20.17;87.58;94881.09;5116453;28;1509;-57
2023/08/04 02:42:40;;;;;;;;;;;;;;;20.06;87.50;94881.88;5116301;28;1917;-56
2023/08/04 02:45:07;;;;;;;;;;;;;;;20.09;87.34;94884.97;5116249;28;1115;-57
2023/08/04 02:47:33;;;;;;;;;;;;;;;20.18;86.69;94888.16;5100689;28;3026;-57
2023/08/04 02:49:59;;;;;;;;;;;;;;;20.26;86.32;94887.88;5078236;28;1249;-57
2023/08/04 02:52:25;;;;;;;;;;;;;;;20.15;86.83;94885.94;5095895;28;1037;-58
2023/08/04 02:54:53;;;;;;;;;;;;;;;20.09;87.41;94882.25;5095985;28;1012;-57
2023/08/04 02:57:19;;;;;;;;;;;;;;;20.07;87.27;94881.63;5095941;28;1275;-57
2023/08/04 02:59:45;;;;;;;;;;;;;;;20.08;87.29;94886.00;5096068;28;1173;-57
2023/08/04 03:02:11;;;;;;;;;;;;;;;20.01;87.72;94892.56;5107156;28;1520;-57
2023/08/04 03:04:38;;;;;;;;;;;;;;;19.93;87.74;94888.25;5116263;28;1906;-57
2023/08/04 03:07:04;;;;;;;;;;;;;;;19.96;87.49;94895.16;5115882;28;1048;-57
2023/08/04 03:09:30;;;;;;;;;;;;;;;20.19;86.16;94891.75;5115990;28;1068;-58
2023/08/04 03:11:56;;;;;;;;;;;;;;;20.13;86.60;94898.06;5115879;28;961;-57
2023/08/04 03:14:22;;;;;;;;;;;;;;;19.84;87.57;94895.03;5115790;28;1080;-57
2023/08/04 03:16:49;;;;;;;;;;;;;;;19.54;89.61;94889.47;5115798;28;1103;-57
2023/08/04 03:19:17;;;;;;;;;;;;;;;19.65;89.35;94895.00;5115531;28;909;-56
2023/08/04 03:21:43;;;;;;;;;;;;;;;19.74;88.70;94892.03;5115660;28;917;-56
2023/08/04 03:24:09;;;;;;;;;;;;;;;19.73;89.06;94893.91;5115774;28;2015;-57
2023/08/04 03:26:35;;;;;;;;;;;;;;;19.74;88.79;94895.56;5115817;28;1044;-57
2023/08/04 03:29:01;;;;;;;;;;;;;;;19.67;88.87;94901.03;5115398;28;1292;-57
2023/08/04 03:31:27;;;;;;;;;;;;;;;19.47;89.67;94900.38;5115626;28;1007;-57
2023/08/04 03:33:53;;;;;;;;;;;;;;;19.35;90.46;94907.56;5115620;28;1041;-56
2023/08/04 03:36:19;;;;;;;;;;;;;;;19.35;90.54;94902.16;5115395;28;921;-56
2023/08/04 03:38:45;;;;;;;;;;;;;;;19.47;90.11;94905.81;5115309;28;1036;-57
2023/08/04 03:41:11;;;;;;;;;;;;;;;19.64;88.97;94896.03;5115027;28;1295;-57
2023/08/04 03:43:37;;;;;;;;;;;;;;;19.57;89.54;94897.97;5114821;28;1906;-57
2023/08/04 03:46:03;;;;;;;;;;;;;;;19.40;91.04;94905.84;5111241;28;3062;-57
2023/08/04 03:48:29;;;;;;;;;;;;;;;19.46;90.87;94909.56;5094798;28;1087;-57
2023/08/04 03:50:55;;;;;;;;;;;;;;;19.60;90.44;94910.28;5094111;28;954;-57
2023/08/04 03:53:21;;;;;;;;;;;;;;;19.68;89.24;94902.69;5094507;28;954;-57
2023/08/04 03:55:46;;;;;;;;;;;;;;;19.67;89.94;94901.03;5094560;28;1111;-56
2023/08/04 03:58:12;;;;;;;;;;;;;;;19.55;90.71;94905.50;5094802;28;1073;-56
2023/08/04 04:00:38;;;;;;;;;;;;;;;19.55;90.89;94902.81;5076586;28;1036;-56
2023/08/04 04:03:05;;;;;;;;;;;;;;;19.78;90.17;94906.78;5094385;28;1997;-56
2023/08/04 04:05:31;;;;;;;;;;;;;;;19.97;88.96;94905.75;5094452;28;959;-57
2023/08/04 04:07:56;;;;;;;;;;;;;;;20.18;87.87;94906.34;5094445;28;974;-58
2023/08/04 04:10:22;;;;;;;;;;;;;;;20.26;87.50;94908.75;5094367;28;962;-58
2023/08/04 04:12:48;;;;;;;;;;;;;;;20.24;87.83;94905.44;5094669;28;1057;-58
2023/08/04 04:15:14;;;;;;;;;;;;;;;20.15;88.28;94907.66;5094164;28;1053;-58
2023/08/04 04:17:40;;;;;;;;;;;;;;;20.09;89.09;94916.69;5094657;28;1044;-57
2023/08/04 04:20:06;;;;;;;;;;;;;;;20.18;89.40;94914.50;5095447;28;1247;-57
2023/08/04 04:22:34;;;;;;;;;;;;;;;20.35;88.38;94912.81;5114775;28;1019;-56
2023/08/04 04:25:00;;;;;;;;;;;;;;;20.66;87.07;94916.44;5114457;28;1942;-57
2023/08/04 04:27:26;;;;;;;;;;;;;;;20.84;87.01;94921.00;5114709;28;965;-57
2023/08/04 04:29:52;;;;;;;;;;;;;;;20.90;87.28;94919.25;5114463;28;1242;-56
2023/08/04 04:32:18;;;;;;;;;;;;;;;21.01;87.28;94923.88;5114473;28;977;-57
2023/08/04 04:34:44;;;;;;;;;;;;;;;21.05;86.41;94922.34;5114425;28;1182;-57
2023/08/04 04:37:10;;;;;;;;;;;;;;;21.05;86.92;94920.47;5114319;28;1036;-56
2023/08/04 04:39:36;;;;;;;;;;;;;;;21.11;87.27;94921.41;5114233;28;996;-57
2023/08/04 04:42:02;;;;;;;;;;;;;;;21.14;87.49;94920.16;5114096;28;1060;-57
2023/08/04 04:44:28;;;;;;;;;;;;;;;21.21;87.51;94918.97;5113649;28;1997;-57
2023/08/04 04:46:54;;;;;;;;;;;;;;;21.32;87.17;94917.31;5114173;28;1036;-56
2023/08/04 04:49:20;;;;;;;;;;;;;;;21.50;86.73;94919.16;5114175;28;1035;-57
2023/08/04 04:51:46;;;;;;;;;;;;;;;21.80;83.53;94929.13;5114178;28;1019;-55
2023/08/04 04:54:12;;;;;;;;;;;;;;;22.11;80.90;94921.66;5113972;28;1019;-55
2023/08/04 04:56:38;;;;;;;;;;;;;;;22.36;80.51;94930.38;5114333;28;995;-58
2023/08/04 04:59:04;;;;;;;;;;;;;;;22.56;80.31;94929.16;5114166;28;986;-58
2023/08/04 05:01:30;;;;;;;;;;;;;;;22.66;79.51;94928.53;5096057;28;1079;-58
2023/08/04 05:03:56;;;;;;;;;;;;;;;22.75;80.66;94933.38;5113848;28;1917;-58
2023/08/04 05:06:22;;;;;;;;;;;;;;;22.79;79.04;94934.53;5113750;28;1079;-58
2023/08/04 05:08:48;;;;;;;;;;;;;;;22.86;77.37;94930.81;5113906;28;1028;-58
2023/08/04 05:11:14;;;;;;;;;;;;;;;22.87;78.02;94933.31;5113999;28;1019;-59
2023/08/04 05:13:43;;;;;;;;;;;;;;;23.03;78.53;94928.16;5113915;28;1238;-58
2023/08/04 05:16:09;;;;;;;;;;;;;;;23.28;77.68;94933.28;5113798;28;1118;-58
2023/08/04 05:18:35;;;;;;;;;;;;;;;23.47;77.64;94925.69;5114048;28;1231;-58
2023/08/04 05:21:01;;;;;;;;;;;;;;;23.54;76.70;94938.09;5114114;28;1036;-58
2023/08/04 05:23:27;;;;;;;;;;;;;;;23.59;78.36;94940.88;5108985;28;2805;-58
2023/08/04 05:25:52;;;;;;;;;;;;;;;23.71;75.55;94938.09;5093580;28;1051;-58
2023/08/04 05:28:30;;;;;;;;;;;;;;;23.75;76.21;94938.41;5093485;28;922;-58
2023/08/04 05:30:56;;;;;;;;;;;;;;;23.84;73.92;94942.41;5093637;28;1040;-58
2023/08/04 05:33:23;;;;;;;;;;;;;;;24.13;72.76;94939.53;5093325;28;942;-58
2023/08/04 05:35:49;;;;;;;;;;;;;;;24.12;72.96;94943.38;5093580;28;1044;-57
2023/08/04 05:38:15;;;;;;;;;;;;;;;24.22;73.75;94943.50;5093414;28;982;-58
2023/08/04 05:40:42;;;;;;;;;;;;;;;24.22;73.75;94942.69;5111647;28;1216;-59
2023/08/04 05:43:08;;;;;;;;;;;;;;;24.24;73.49;94944.06;5094615;28;2922;-59
2023/08/04 05:45:35;;;;;;;;;;;;;;;24.46;73.87;94943.28;5108512;28;2543;-58
2023/08/04 05:48:01;;;;;;;;;;;;;;;24.65;71.94;94952.84;5113746;28;1019;-57
2023/08/04 05:50:27;;;;;;;;;;;;;;;24.70;71.97;94947.47;5113790;28;978;-57
2023/08/04 05:52:53;;;;;;;;;;;;;;;24.85;71.66;94952.28;5113269;28;1035;-56
2023/08/04 05:55:22;;;;;;;;;;;;;;;25.02;70.65;94954.91;5114247;28;956;-57
2023/08/04 05:57:49;;;;;;;;;;;;;;;25.02;70.76;94951.34;5117644;28;1018;-57
2023/08/04 06:00:15;;;;;;;;;;;;;;;25.02;70.46;94941.25;5117310;28;1303;-57
2023/08/04 06:02:42;;;;;;;;;;;;;;;25.16;70.99;94946.34;5117586;28;1917;-57
2023/08/04 06:05:09;;;;;;;;;;;;;;;25.22;70.90;94948.03;5117586;28;995;-57
2023/08/04 06:07:35;;;;;;;;;;;;;;;25.21;69.72;94940.91;5117471;28;1147;-57
2023/08/04 06:10:01;;;;;;;;;;;;;;;25.35;69.99;94947.66;5117182;28;1055;-57
2023/08/04 06:12:27;;;;;;;;;;;;;;;25.26;69.56;94936.34;5117251;28;957;-56
2023/08/04 06:14:53;;;;;;;;;;;;;;;25.54;69.84;94934.41;5116868;28;1111;-57
2023/08/04 06:17:19;;;;;;;;;;;;;;;25.64;69.00;94937.22;5113945;28;1383;-57
2023/08/04 06:19:44;;;;;;;;;;;;;;;25.71;69.83;94937.00;5117234;28;958;-57
2023/08/04 06:22:13;;;;;;;;;;;;;;;25.83;69.40;94936.84;5116768;28;1048;-57
2023/08/04 06:24:39;;;;;;;;;;;;;;;26.03;68.42;94933.47;5116419;28;1910;-56
2023/08/04 06:27:05;;;;;;;;;;;;;;;26.17;67.00;94934.63;5116788;28;1080;-56
2023/08/04 06:29:31;;;;;;;;;;;;;;;26.23;67.89;94933.56;5116902;28;1224;-57
2023/08/04 06:31:57;;;;;;;;;;;;;;;26.55;66.82;94931.81;5116723;28;1064;-57
2023/08/04 06:34:23;;;;;;;;;;;;;;;26.62;66.45;94930.53;5116695;28;1083;-57
2023/08/04 06:36:49;;;;;;;;;;;;;;;26.74;64.36;94937.69;5116294;28;1096;-57
2023/08/04 06:39:15;;;;;;;;;;;;;;;26.77;64.35;94937.13;5116508;28;1045;-57
2023/08/04 06:41:41;;;;;;;;;;;;;;;26.88;64.06;94930.59;5116254;28;1883;-57
2023/08/04 06:44:07;;;;;;;;;;;;;;;26.96;63.53;94923.78;5116663;28;1906;-57
2023/08/04 06:46:33;;;;;;;;;;;;;;;27.19;63.75;94927.97;5116803;28;969;-57
2023/08/04 06:48:59;;;;;;;;;;;;;;;27.43;63.18;94922.81;5098094;28;1079;-57
2023/08/04 06:51:25;;;;;;;;;;;;;;;27.44;63.39;94932.69;5116591;28;1031;-57
2023/08/04 06:53:51;;;;;;;;;;;;;;;27.52;62.30;94931.34;5116671;28;1052;-57
2023/08/04 06:56:18;;;;;;;;;;;;;;;27.75;63.87;94929.97;5116167;28;1128;-57
2023/08/04 07:00:17;;;;;;;;;;;;;;;28.06;62.38;94927.22;5118941;27;1313481;-56
2023/08/04 07:02:49;;;;;;;;;;;;;;;28.13;61.95;94928.59;5152719;27;988;-57
2023/08/04 07:05:15;;;;;;;;;;;;;;;28.23;61.37;94925.84;5151426;27;2479;-54
2023/08/04 07:07:41;;;;;;;;;;;;;;;28.53;59.54;94915.91;5131063;27;2878;-57
2023/08/04 07:10:08;;;;;;;;;;;;;;;28.62;61.22;94916.13;5131619;27;1095;-57
2023/08/04 07:12:34;;;;;;;;;;;;;;;28.77;60.17;94913.31;5131505;27;1028;-57
2023/08/04 07:15:00;;;;;;;;;;;;;;;28.79;58.20;94918.53;5131767;28;1043;-56
2023/08/04 07:17:26;;;;;;;;;;;;;;;28.80;58.77;94911.94;5136264;27;1096;-56
2023/08/04 07:19:53;;;;;;;;;;;;;;;29.05;55.69;94912.91;5152399;27;2019;-57
2023/08/04 07:22:19;;;;;;;;;;;;;;;29.08;53.55;94918.66;5152006;27;1020;-57
2023/08/04 07:24:47;;;;;;;;;;;;;;;29.08;53.23;94909.59;5152075;27;1028;-57
2023/08/04 07:27:13;;;;;;;;;;;;;;;29.08;55.38;94906.81;5151437;27;1099;-57
2023/08/04 07:29:39;;;;;;;;;;;;;;;29.15;54.53;94910.94;5152102;27;1141;-57
2023/08/04 07:32:05;;;;;;;;;;;;;;;29.43;54.94;94922.34;5152190;27;1019;-57
2023/08/04 07:34:31;;;;;;;;;;;;;;;29.55;54.85;94916.47;5151893;27;1873;-57
2023/08/04 07:36:57;;;;;;;;;;;;;;;29.57;54.59;94915.06;5151842;27;1123;-56
2023/08/04 07:39:23;;;;;;;;;;;;;;;29.67;54.72;94910.59;5130895;28;1988;-56
2023/08/04 07:41:50;;;;;;;;;;;;;;;29.69;53.80;94900.94;5130874;27;1082;-57
2023/08/04 07:44:16;;;;;;;;;;;;;;;29.76;54.61;94897.88;5131237;27;972;-56
2023/08/04 07:46:42;;;;;;;;;;;;;;;29.62;52.36;94894.13;5131009;27;1099;-55
2023/08/04 07:49:08;;;;;;;;;;;;;;;29.85;52.53;94898.09;5149085;27;1095;-57
2023/08/04 07:51:34;;;;;;;;;;;;;;;30.06;53.06;94896.78;5151446;27;1099;-57
2023/08/04 07:54:00;;;;;;;;;;;;;;;30.09;52.89;94898.97;5151429;27;1099;-56
2023/08/04 07:56:35;;;;;;;;;;;;;;;30.11;51.78;94890.41;5151256;27;1122;-57
2023/08/04 07:59:01;;;;;;;;;;;;;;;30.26;52.68;94900.44;5151080;27;1980;-57
2023/08/04 08:01:27;;;;;;;;;;;;;;;30.40;52.24;94895.91;5151352;27;1091;-56
2023/08/04 08:03:53;;;;;;;;;;;;;;;30.28;50.68;94890.78;5151418;27;1015;-57
2023/08/04 08:06:19;;;;;;;;;;;;;;;30.29;52.78;94881.38;5151183;27;1062;-56
2023/08/04 08:08:46;;;;;;;;;;;;;;;30.43;51.33;94883.47;5150979;27;1487;-57
2023/08/04 08:11:12;;;;;;;;;;;;;;;30.47;50.18;94892.81;5140256;27;1062;-56
2023/08/04 08:13:38;;;;;;;;;;;;;;;30.60;50.68;94885.75;5137629;27;1039;-56
2023/08/04 08:16:08;;;;;;;;;;;;;;;30.63;51.09;94887.94;5136147;27;1114;-57
2023/08/04 08:18:34;;;;;;;;;;;;;;;30.74;50.01;94881.97;5136476;27;1992;-57
2023/08/04 08:21:03;;;;;;;;;;;;;;;31.01;50.23;94875.03;5137192;27;2002;-57
2023/08/04 08:23:29;;;;;;;;;;;;;;;31.28;49.89;94879.06;5137360;27;961;-57
2023/08/04 08:25:55;;;;;;;;;;;;;;;31.27;50.71;94874.69;5137444;27;964;-57
2023/08/04 08:28:21;;;;;;;;;;;;;;;31.23;51.07;94868.94;5136854;27;1042;-57
2023/08/04 08:30:47;;;;;;;;;;;;;;;31.29;50.16;94870.50;5136987;27;1219;-57
2023/08/04 08:33:13;;;;;;;;;;;;;;;31.40;49.92;94870.31;5136883;27;1067;-57
2023/08/04 08:35:39;;;;;;;;;;;;;;;31.61;50.00;94876.41;5136911;27;2038;-56
2023/08/04 08:38:05;;;;;;;;;;;;;;;31.71;48.35;94868.75;5136832;27;1995;-57
2023/08/04 08:40:31;;;;;;;;;;;;;;;31.79;49.49;94861.72;5136970;27;1058;-57
2023/08/04 08:42:57;;;;;;;;;;;;;;;31.81;49.02;94866.94;5137019;27;1053;-57
2023/08/04 08:45:29;;;;;;;;;;;;;;;31.81;48.80;94862.22;5136415;27;1032;-56
2023/08/04 08:47:56;;;;;;;;;;;;;;;31.95;49.31;94859.50;5136630;27;1007;-56
2023/08/04 08:50:28;;;;;;;;;;;;;;;31.97;48.64;94857.25;5136734;27;1006;-57
2023/08/04 08:52:59;;;;;;;;;;;;;;;32.16;48.41;94859.19;5136562;27;1015;-56
2023/08/04 08:55:27;;;;;;;;;;;;;;;32.35;49.44;94857.13;5132158;27;2763;-56
2023/08/04 08:57:54;;;;;;;;;;;;;;;32.30;46.82;94843.41;5115982;28;2869;-56
2023/08/04 09:00:22;;;;;;;;;;;;;;;32.41;48.46;94838.50;5115388;28;1103;-55
2023/08/04 09:02:48;;;;;;;;;;;;;;;32.40;48.12;94845.94;5115666;28;2912;-56
2023/08/04 09:05:16;;;;;;;;;;;;;;;32.54;48.32;94842.41;5115662;28;1036;-56
2023/08/04 09:07:42;;;;;;;;;;;;;;;32.57;46.95;94839.03;5126119;27;2439;-56
2023/08/04 09:10:08;;;;;;;;;;;;;;;32.58;48.01;94837.91;5131023;27;2502;-56
2023/08/04 09:12:34;;;;;;;;;;;;;;;32.68;46.60;94843.22;5115705;28;953;-56
2023/08/04 09:15:02;;;;;;;;;;;;;;;32.74;47.42;94830.91;5133605;27;3003;-56
2023/08/04 09:17:33;;;;;;;;;;;;;;;32.69;46.49;94831.03;5135577;27;1028;-56
2023/08/04 09:20:00;;;;;;;;;;;;;;;32.84;46.94;94836.25;5135855;27;1906;-57
2023/08/04 09:22:26;;;;;;;;;;;;;;;33.02;46.74;94828.09;5135174;27;991;-56
2023/08/04 09:24:56;;;;;;;;;;;;;;;33.08;46.15;94822.09;5135968;27;1096;-57
2023/08/04 09:27:29;;;;;;;;;;;;;;;33.06;45.88;94826.34;5136025;27;1023;-56
2023/08/04 09:29:57;;;;;;;;;;;;;;;33.11;45.81;94822.69;5135745;27;1148;-57
2023/08/04 09:32:23;;;;;;;;;;;;;;;33.18;47.23;94811.97;5136005;27;1032;-57
2023/08/04 09:34:57;;;;;;;;;;;;;;;33.24;45.60;94811.53;5135913;27;973;-56
2023/08/04 09:37:23;;;;;;;;;;;;;;;33.18;43.91;94814.72;5135538;27;1094;-56
2023/08/04 09:39:49;;;;;;;;;;;;;;;33.23;44.03;94812.66;5135410;27;2065;-56
2023/08/04 09:42:18;;;;;;;;;;;;;;;33.47;44.00;94800.47;5131695;27;2483;-56
2023/08/04 09:44:49;;;;;;;;;;;;;;;33.67;44.38;94795.56;5115286;28;1111;-56
2023/08/04 09:47:14;;;;;;;;;;;;;;;33.68;44.17;94809.13;5115021;28;981;-57
2023/08/04 09:49:40;;;;;;;;;;;;;;;33.71;41.83;94799.34;5130563;27;2881;-56
2023/08/04 09:52:06;;;;;;;;;;;;;;;33.83;43.83;94785.72;5114779;28;1044;-58
2023/08/04 09:54:32;;;;;;;;;;;;;;;33.96;44.99;94789.53;5115001;28;1043;-57
2023/08/04 09:56:58;;;;;;;;;;;;;;;33.98;44.92;94782.53;5114969;28;953;-56
2023/08/04 09:59:26;;;;;;;;;;;;;;;34.00;44.46;94785.00;5130185;27;1996;-57
2023/08/04 10:01:52;;;;;;;;;;;;;;;34.12;43.95;94776.88;5135477;27;1059;-57
2023/08/04 10:04:20;;;;;;;;;;;;;;;34.10;42.74;94778.34;5135334;27;1036;-57
2023/08/04 10:06:46;;;;;;;;;;;;;;;34.16;44.23;94771.56;5134852;27;1098;-57
2023/08/04 10:09:12;;;;;;;;;;;;;;;34.26;42.47;94771.25;5134647;27;1067;-57
2023/08/04 10:11:38;;;;;;;;;;;;;;;34.35;41.18;94776.84;5134915;27;1039;-56
2023/08/04 10:14:04;;;;;;;;;;;;;;;34.52;41.89;94774.09;5134934;27;1043;-56
2023/08/04 10:16:33;;;;;;;;;;;;;;;34.52;40.32;94765.78;5134129;27;974;-56
2023/08/04 10:19:03;;;;;;;;;;;;;;;34.65;39.83;94772.34;5134276;27;1992;-56
2023/08/04 10:21:33;;;;;;;;;;;;;;;34.77;40.42;94774.50;5132667;27;2883;-56
2023/08/04 10:23:59;;;;;;;;;;;;;;;34.91;39.01;94771.59;5114409;28;956;-56
2023/08/04 10:26:25;;;;;;;;;;;;;;;35.01;39.12;94768.50;5113158;28;1013;-55
2023/08/04 10:29:04;;;;;;;;;;;;;;;35.07;39.89;94760.81;5117873;27;1157;-56
2023/08/04 10:31:42;;;;;;;;;;;;;;;35.12;40.52;94755.13;5134395;27;1031;-56
2023/08/04 10:34:37;;;;;;;;;;;;;;;35.11;38.17;94759.84;5133898;27;1592;-56
2023/08/04 10:37:10;;;;;;;;;;;;;;;35.01;36.85;94765.72;5111747;27;1161;-55
2023/08/04 10:39:41;;;;;;;;;;;;;;;35.06;37.86;94764.72;5135064;27;1917;-55
2023/08/04 10:42:12;;;;;;;;;;;;;;;35.08;35.69;94771.63;5118390;27;2569;-56
2023/08/04 10:44:57;;;;;;;;;;;;;;;35.09;36.83;94752.97;5114114;28;976;-55
2023/08/04 10:47:32;;;;;;;;;;;;;;;35.14;35.65;94755.59;5114103;28;987;-55
2023/08/04 10:49:59;;;;;;;;;;;;;;;35.29;37.01;94744.03;5113832;28;1201;-55
2023/08/04 10:52:25;;;;;;;;;;;;;;;35.38;36.45;94755.09;5114122;28;1012;-56
2023/08/04 10:54:52;;;;;;;;;;;;;;;35.27;35.90;94745.47;5113656;28;1040;-56
2023/08/04 10:57:18;;;;;;;;;;;;;;;35.21;36.03;94746.78;5113715;28;1099;-56
2023/08/04 10:59:44;;;;;;;;;;;;;;;35.29;36.20;94746.81;5113620;28;3017;-56
2023/08/04 11:02:11;;;;;;;;;;;;;;;35.45;36.50;94741.53;5128117;27;2828;-56
2023/08/04 11:04:37;;;;;;;;;;;;;;;35.69;36.00;94735.47;5113951;28;972;-56
2023/08/04 11:07:03;;;;;;;;;;;;;;;35.69;35.96;94735.47;5121277;27;2951;-56
2023/08/04 11:09:29;;;;;;;;;;;;;;;35.50;34.78;94733.03;5125320;27;2908;-56
2023/08/04 11:11:55;;;;;;;;;;;;;;;35.29;35.76;94723.75;5133709;28;2964;-56
2023/08/04 11:14:21;;;;;;;;;;;;;;;35.28;36.89;94722.13;5133867;28;887;-56
2023/08/04 11:16:49;;;;;;;;;;;;;;;35.35;34.95;94737.13;5134008;27;1072;-56
2023/08/04 11:19:18;;;;;;;;;;;;;;;35.50;35.31;94726.66;5133779;27;1913;-56
2023/08/04 11:21:44;;;;;;;;;;;;;;;35.69;34.97;94704.06;5133060;27;2455;-56
2023/08/04 11:24:10;;;;;;;;;;;;;;;35.90;34.54;94718.06;5120657;28;2928;-56
2023/08/04 11:26:37;;;;;;;;;;;;;;;35.88;33.91;94723.97;5134272;28;1051;-56
2023/08/04 11:29:04;;;;;;;;;;;;;;;36.02;33.89;94722.94;5133988;27;1212;-56
2023/08/04 11:31:32;;;;;;;;;;;;;;;36.22;33.86;94713.88;5133616;27;1122;-55
2023/08/04 11:33:58;;;;;;;;;;;;;;;36.09;33.58;94712.09;5127911;27;2423;-55
2023/08/04 11:36:24;;;;;;;;;;;;;;;36.12;34.45;94714.19;5133528;27;1164;-55
2023/08/04 11:38:50;;;;;;;;;;;;;;;36.15;33.88;94713.53;5133753;28;1991;-54
2023/08/04 11:41:16;;;;;;;;;;;;;;;36.16;34.50;94706.81;5133759;28;1031;-55
2023/08/04 11:43:42;;;;;;;;;;;;;;;36.23;33.32;94706.31;5132118;28;2499;-56
2023/08/04 11:46:08;;;;;;;;;;;;;;;36.15;33.07;94703.22;5133430;27;2946;-56
2023/08/04 11:48:35;;;;;;;;;;;;;;;35.99;33.50;94699.38;5137497;27;996;-56
2023/08/04 11:51:01;;;;;;;;;;;;;;;35.90;32.93;94701.38;5122879;27;2466;-56
2023/08/04 11:53:27;;;;;;;;;;;;;;;35.77;32.50;94700.44;5117325;28;956;-56
2023/08/04 11:55:56;;;;;;;;;;;;;;;35.86;33.07;94712.34;5132126;27;987;-56
2023/08/04 11:58:50;;;;;;;;;;;;;;;36.06;35.63;94696.88;5137413;27;1934;-57
2023/08/04 12:01:25;;;;;;;;;;;;;;;36.12;33.24;94697.50;5121317;27;2730;-57
2023/08/04 12:03:51;;;;;;;;;;;;;;;36.18;32.54;94698.16;5117093;28;1061;-58
2023/08/04 12:06:18;;;;;;;;;;;;;;;36.26;32.29;94687.00;5133413;27;2494;-58
2023/08/04 12:08:47;;;;;;;;;;;;;;;36.43;32.67;94693.63;5137281;27;1099;-58
2023/08/04 12:11:13;;;;;;;;;;;;;;;36.43;32.16;94688.06;5137167;27;1112;-57
2023/08/04 12:13:40;;;;;;;;;;;;;;;36.40;31.86;94685.94;5137129;27;1048;-58
2023/08/04 12:16:06;;;;;;;;;;;;;;;36.37;32.01;94687.44;5137049;27;1036;-58
2023/08/04 12:18:32;;;;;;;;;;;;;;;36.15;31.46;94680.94;5137014;27;1910;-57
2023/08/04 12:20:58;;;;;;;;;;;;;;;36.15;33.13;94666.22;5137142;27;1116;-57
2023/08/04 12:23:24;;;;;;;;;;;;;;;36.16;30.86;94667.84;5137117;27;1076;-57
2023/08/04 12:25:50;;;;;;;;;;;;;;;36.06;33.56;94677.41;5128999;27;2442;-57
2023/08/04 12:28:16;;;;;;;;;;;;;;;36.03;32.16;94671.69;5116688;28;992;-57
2023/08/04 12:30:43;;;;;;;;;;;;;;;36.07;32.19;94664.31;5135890;27;1149;-57
2023/08/04 12:33:08;;;;;;;;;;;;;;;36.25;33.07;94665.06;5136972;27;1075;-56
2023/08/04 12:35:34;;;;;;;;;;;;;;;36.24;32.02;94666.22;5136649;27;1008;-56
2023/08/04 12:38:04;;;;;;;;;;;;;;;36.25;32.69;94662.28;5136648;27;1023;-56
2023/08/04 12:40:30;;;;;;;;;;;;;;;36.30;32.52;94660.13;5136049;27;917;-57
2023/08/04 12:42:56;;;;;;;;;;;;;;;36.48;32.69;94654.44;5135160;27;2459;-57
2023/08/04 12:45:22;;;;;;;;;;;;;;;36.29;31.70;94652.09;5134494;27;1044;-56
2023/08/04 12:47:48;;;;;;;;;;;;;;;36.20;32.61;94646.59;5136658;27;1032;-57
2023/08/04 12:50:14;;;;;;;;;;;;;;;36.14;32.94;94645.13;5136582;27;1007;-57
2023/08/04 12:52:40;;;;;;;;;;;;;;;36.12;33.20;94645.47;5136337;27;1107;-57
2023/08/04 12:55:07;;;;;;;;;;;;;;;36.19;33.83;94638.59;5136158;27;1271;-57
2023/08/04 12:57:33;;;;;;;;;;;;;;;36.22;32.86;94649.03;5133967;27;2430;-57